createdAt,value
2019-02-25T00:04:42.807Z,6.90
2019-02-25T00:09:49.152Z,6.80
2019-02-25T00:14:55.572Z,6.70
2019-02-25T00:20:01.984Z,6.70
2019-02-25T00:25:08.985Z,6.70
2019-02-25T00:30:15.532Z,6.60
2019-02-25T00:35:21.742Z,6.40
2019-02-25T00:40:29.254Z,6.40
2019-02-25T00:45:35.954Z,6.30
2019-02-25T00:50:42.163Z,6.30
2019-02-25T00:55:48.352Z,6.20
2019-02-25T01:00:54.696Z,6.20
2019-02-25T01:06:02.641Z,6.20
2019-02-25T01:11:09.048Z,6.10
2019-02-25T01:16:16.562Z,6.00
2019-02-25T01:21:22.780Z,6.00
2019-02-25T01:26:31.382Z,5.80
2019-02-25T01:31:39.549Z,5.70
2019-02-25T01:36:46.092Z,5.60
2019-02-25T01:41:53.413Z,5.60
2019-02-25T01:46:59.840Z,5.60
2019-02-25T01:52:07.970Z,5.60
2019-02-25T01:57:14.409Z,5.60
2019-02-25T02:02:20.737Z,5.50
2019-02-25T02:07:26.929Z,5.40
2019-02-25T02:12:33.715Z,5.40
2019-02-25T02:17:39.983Z,5.30
2019-02-25T02:22:48.028Z,5.30
2019-02-25T02:27:56.667Z,5.30
2019-02-25T02:33:02.952Z,5.20
2019-02-25T02:38:09.748Z,5.10
2019-02-25T02:43:16.053Z,5.00
2019-02-25T02:48:29.165Z,5.00
2019-02-25T02:53:35.479Z,5.00
2019-02-25T02:58:43.905Z,5.00
2019-02-25T03:03:56.834Z,5.00
2019-02-25T03:09:04.743Z,4.80
2019-02-25T03:14:12.652Z,4.80
2019-02-25T03:19:20.383Z,4.70
2019-02-25T03:24:26.783Z,4.70
2019-02-25T03:29:33.082Z,4.70
2019-02-25T03:34:39.375Z,4.70
2019-02-25T03:39:45.679Z,4.70
2019-02-25T03:44:52.831Z,4.70
2019-02-25T03:49:59.036Z,4.60
2019-02-25T03:55:06.469Z,4.60
2019-02-25T04:00:17.738Z,4.50
2019-02-25T04:05:24.289Z,4.50
2019-02-25T04:10:30.540Z,4.50
2019-02-25T04:15:40.577Z,4.40
2019-02-25T04:20:49.836Z,4.40
2019-02-25T04:25:56.152Z,4.30
2019-02-25T04:31:02.431Z,5.00
2019-02-25T04:36:08.663Z,5.70
2019-02-25T04:41:15.980Z,6.00
2019-02-25T04:46:22.390Z,6.40
2019-02-25T04:51:28.632Z,6.30
2019-02-25T04:56:34.843Z,5.90
2019-02-25T05:01:41.184Z,5.40
2019-02-25T05:06:47.388Z,5.10
2019-02-25T05:11:53.740Z,4.90
2019-02-25T05:17:00.355Z,4.80
2019-02-25T05:22:06.730Z,4.80
2019-02-25T05:27:13.048Z,4.90
2019-02-25T05:32:19.355Z,5.30
2019-02-25T05:37:25.840Z,5.00
2019-02-25T05:42:32.031Z,4.70
2019-02-25T05:47:38.249Z,4.60
2019-02-25T05:52:46.216Z,4.50
2019-02-25T05:57:52.624Z,4.40
2019-02-25T06:02:58.947Z,4.30
2019-02-25T06:08:05.528Z,4.30
2019-02-25T06:13:11.827Z,4.30
2019-02-25T06:18:18.324Z,4.20
2019-02-25T06:23:24.570Z,4.20
2019-02-25T06:28:31.382Z,4.10
2019-02-25T06:33:37.630Z,4.50
2019-02-25T06:38:44.265Z,5.10
2019-02-25T06:43:50.492Z,5.40
2019-02-25T06:48:56.695Z,5.50
2019-02-25T06:54:02.947Z,5.60
2019-02-25T06:59:10.257Z,5.50
2019-02-25T07:04:33.756Z,5.30
2019-02-25T07:09:50.092Z,5.20
2019-02-25T07:15:15.320Z,5.20
2019-02-25T07:20:43.377Z,5.20
2019-02-25T07:26:08.643Z,5.20
2019-02-25T07:31:29.645Z,5.40
2019-02-25T07:36:42.610Z,5.60
2019-02-25T07:42:06.445Z,5.90
2019-02-25T07:47:22.193Z,6.00
2019-02-25T07:52:36.084Z,6.10
2019-02-25T07:57:50.992Z,6.10
2019-02-25T08:03:28.664Z,6.10
2019-02-25T08:08:54.670Z,5.90
2019-02-25T08:14:15.380Z,6.10
2019-02-25T08:19:33.020Z,6.50
2019-02-25T08:24:58.376Z,7.10
2019-02-25T08:30:19.803Z,6.90
2019-02-25T08:36:24.257Z,7.90
2019-02-25T08:41:46.201Z,8.30
2019-02-25T08:47:14.527Z,9.10
2019-02-25T08:52:20.792Z,9.80
2019-02-25T08:57:26.992Z,10.20
2019-02-25T09:02:33.290Z,10.80
2019-02-25T09:07:39.596Z,11.20
2019-02-25T09:12:45.894Z,11.70
2019-02-25T09:18:11.210Z,12.00
2019-02-25T09:23:17.541Z,13.10
2019-02-25T09:28:23.808Z,13.70
2019-02-25T09:33:30.065Z,14.20
2019-02-25T09:38:36.395Z,13.40
2019-02-25T09:43:43.049Z,13.80
2019-02-25T09:48:49.550Z,13.60
2019-02-25T09:53:55.798Z,13.90
2019-02-25T09:59:02.031Z,14.90
2019-02-25T10:04:08.872Z,14.40
2019-02-25T10:09:15.342Z,14.90
2019-02-25T10:14:21.720Z,14.70
2019-02-25T10:19:28.961Z,15.10
2019-02-25T10:24:35.207Z,15.60
2019-02-25T10:29:41.469Z,15.30
2019-02-25T10:34:47.734Z,15.90
2019-02-25T10:39:54.103Z,15.30
2019-02-25T10:45:00.344Z,15.90
2019-02-25T10:50:07.436Z,15.50
2019-02-25T10:55:17.784Z,16.20
2019-02-25T11:00:24.119Z,16.60
2019-02-25T11:05:30.837Z,16.40
2019-02-25T11:11:08.301Z,17.00
2019-02-25T11:16:16.436Z,17.00
2019-02-25T11:21:22.825Z,16.90
2019-02-25T11:26:30.627Z,17.20
2019-02-25T11:31:37.158Z,17.40
2019-02-25T11:36:43.707Z,17.20
2019-02-25T11:41:50.001Z,17.30
2019-02-25T11:46:56.431Z,17.40
2019-02-25T11:52:03.707Z,17.30
2019-02-25T11:57:10.006Z,17.90
2019-02-25T12:02:25.252Z,17.40
2019-02-25T12:07:25.990Z,17.10
2019-02-25T12:12:33.375Z,17.40
2019-02-25T12:17:39.749Z,17.60
2019-02-25T12:22:46.353Z,17.60
2019-02-25T12:27:52.807Z,17.70
2019-02-25T12:32:59.081Z,17.80
2019-02-25T12:38:05.832Z,18.00
2019-02-25T12:43:12.417Z,18.30
2019-02-25T12:48:18.965Z,18.20
2019-02-25T12:53:25.341Z,18.30
2019-02-25T12:58:33.003Z,18.50
2019-02-25T13:03:39.846Z,19.00
2019-02-25T13:08:46.110Z,18.40
2019-02-25T13:13:52.582Z,18.40
2019-02-25T13:18:59.048Z,18.50
2019-02-25T13:24:07.484Z,18.90
2019-02-25T13:29:14.961Z,19.00
2019-02-25T13:34:21.262Z,19.20
2019-02-25T13:39:27.744Z,19.00
2019-02-25T13:44:34.085Z,18.70
2019-02-25T13:49:40.417Z,18.60
2019-02-25T13:54:47.095Z,18.70
2019-02-25T13:59:53.367Z,18.90
2019-02-25T14:04:59.626Z,19.00
2019-02-25T14:10:08.924Z,18.80
2019-02-25T14:15:16.033Z,19.10
2019-02-25T14:20:22.733Z,18.90
2019-02-25T14:25:29.197Z,19.00
2019-02-25T14:30:35.880Z,19.20
2019-02-25T14:35:43.536Z,19.30
2019-02-25T14:40:51.359Z,18.90
2019-02-25T14:45:58.935Z,19.00
2019-02-25T14:51:08.670Z,19.10
2019-02-25T14:56:14.440Z,19.00
2019-02-25T15:01:22.684Z,18.90
2019-02-25T15:06:30.014Z,18.80
2019-02-25T15:11:36.920Z,19.10
2019-02-25T15:16:43.348Z,18.40
2019-02-25T15:21:50.449Z,18.50
2019-02-25T15:26:59.862Z,18.00
2019-02-25T15:32:07.003Z,18.10
2019-02-25T15:37:13.992Z,17.90
2019-02-25T15:42:23.820Z,17.60
2019-02-25T15:47:28.654Z,17.40
2019-02-25T15:52:39.973Z,17.50
2019-02-25T15:57:44.162Z,17.50
2019-02-25T16:02:52.274Z,17.20
2019-02-25T16:08:00.633Z,17.40
2019-02-25T16:13:10.998Z,17.20
2019-02-25T16:18:16.095Z,16.80
2019-02-25T16:23:25.788Z,16.70
2019-02-25T16:28:36.190Z,16.60
2019-02-25T16:33:43.329Z,16.50
2019-02-25T16:38:53.174Z,16.40
2019-02-25T16:43:59.537Z,16.30
2019-02-25T16:49:06.381Z,16.10
2019-02-25T16:54:13.570Z,16.10
2019-02-25T16:59:29.949Z,15.90
2019-02-25T17:04:38.344Z,15.80
2019-02-25T17:09:44.705Z,15.70
2019-02-25T17:14:51.044Z,15.50
2019-02-25T17:19:57.460Z,15.30
2019-02-25T17:25:08.177Z,15.10
2019-02-25T17:30:19.601Z,15.00
2019-02-25T17:35:28.853Z,14.80
2019-02-25T17:40:34.934Z,14.60
2019-02-25T17:45:41.262Z,14.50
2019-02-25T17:50:49.056Z,14.50
2019-02-25T17:55:57.238Z,14.20
2019-02-25T18:01:05.749Z,14.10
2019-02-25T18:06:12.546Z,14.00
2019-02-25T18:11:20.188Z,13.90
2019-02-25T18:16:27.012Z,13.70
2019-02-25T18:21:34.042Z,13.60
2019-02-25T18:26:41.637Z,13.60
2019-02-25T18:31:48.101Z,13.40
2019-02-25T18:36:55.716Z,13.30
2019-02-25T18:42:02.491Z,13.10
2019-02-25T18:47:08.812Z,13.00
2019-02-25T18:52:15.510Z,12.80
2019-02-25T18:57:27.405Z,12.60
